createdAt,value
2018-12-13T00:01:46.465Z,3.80
2018-12-13T00:04:20.777Z,3.70
2018-12-13T00:06:55.125Z,3.60
2018-12-13T00:09:29.527Z,3.60
2018-12-13T00:12:04.090Z,3.50
2018-12-13T00:14:38.678Z,3.50
2018-12-13T00:17:13.004Z,3.50
2018-12-13T00:19:47.296Z,3.50
2018-12-13T00:22:21.711Z,3.40
2018-12-13T00:24:56.045Z,3.40
2018-12-13T00:27:30.202Z,3.30
2018-12-13T00:30:05.292Z,3.30
2018-12-13T00:32:39.519Z,3.30
2018-12-13T00:35:13.791Z,3.30
2018-12-13T00:37:48.190Z,3.20
2018-12-13T00:40:22.420Z,3.20
2018-12-13T00:42:56.704Z,3.20
2018-12-13T00:45:30.917Z,3.20
2018-12-13T00:48:05.196Z,3.10
2018-12-13T00:50:39.568Z,3.10
2018-12-13T00:53:14.012Z,3.00
2018-12-13T00:55:48.196Z,3.00
2018-12-13T00:58:22.632Z,3.00
2018-12-13T01:01:00.781Z,3.00
2018-12-13T01:03:35.060Z,3.00
2018-12-13T01:06:09.422Z,3.00
2018-12-13T01:08:43.620Z,3.00
2018-12-13T01:11:17.856Z,3.00
2018-12-13T01:13:52.201Z,3.10
2018-12-13T01:16:26.513Z,3.10
2018-12-13T01:19:00.813Z,3.10
2018-12-13T01:21:35.212Z,3.10
2018-12-13T01:24:09.563Z,3.10
2018-12-13T01:26:43.860Z,3.20
2018-12-13T01:29:18.132Z,3.10
2018-12-13T01:31:52.552Z,3.10
2018-12-13T01:34:26.965Z,3.10
2018-12-13T01:37:01.292Z,3.10
2018-12-13T01:39:35.644Z,3.10
2018-12-13T01:42:09.849Z,3.10
2018-12-13T01:44:44.356Z,3.20
2018-12-13T01:47:18.702Z,3.20
2018-12-13T01:49:53.133Z,3.20
2018-12-13T01:52:27.341Z,3.10
2018-12-13T01:55:01.669Z,3.10
2018-12-13T01:57:35.869Z,3.10
2018-12-13T02:00:10.259Z,3.10
2018-12-13T02:02:44.704Z,3.10
2018-12-13T02:05:18.915Z,3.00
2018-12-13T02:07:53.205Z,3.00
2018-12-13T02:10:27.732Z,2.90
2018-12-13T02:13:02.187Z,2.90
2018-12-13T02:15:36.564Z,2.80
2018-12-13T02:18:10.872Z,2.80
2018-12-13T02:20:45.228Z,2.80
2018-12-13T02:23:19.562Z,2.80
2018-12-13T02:25:53.810Z,2.80
2018-12-13T02:28:28.076Z,2.70
2018-12-13T02:31:02.460Z,2.80
2018-12-13T02:33:36.893Z,2.70
2018-12-13T02:36:11.351Z,2.70
2018-12-13T02:38:45.606Z,2.80
2018-12-13T02:41:20.064Z,2.70
2018-12-13T02:43:54.408Z,2.60
2018-12-13T02:46:28.836Z,2.60
2018-12-13T02:49:07.734Z,2.70
2018-12-13T02:51:42.093Z,2.70
2018-12-13T02:54:16.370Z,2.60
2018-12-13T02:56:50.711Z,2.60
2018-12-13T02:59:25.049Z,2.60
2018-12-13T03:01:59.325Z,2.60
2018-12-13T03:04:33.670Z,2.60
2018-12-13T03:07:13.632Z,2.50
2018-12-13T03:09:44.422Z,2.50
2018-12-13T03:12:18.697Z,2.50
2018-12-13T03:14:52.971Z,2.40
2018-12-13T03:17:27.263Z,2.50
2018-12-13T03:20:01.796Z,2.40
2018-12-13T03:22:36.132Z,2.40
2018-12-13T03:25:10.484Z,2.40
2018-12-13T03:27:44.662Z,2.40
2018-12-13T03:30:19.081Z,2.40
2018-12-13T03:32:53.620Z,2.30
2018-12-13T03:35:28.050Z,2.30
2018-12-13T03:38:02.349Z,2.30
2018-12-13T03:40:36.752Z,2.30
2018-12-13T03:43:11.088Z,2.30
2018-12-13T03:45:45.510Z,2.30
2018-12-13T03:48:19.675Z,2.30
2018-12-13T03:50:54.265Z,2.30
2018-12-13T03:53:28.777Z,2.30
2018-12-13T03:56:03.121Z,2.20
2018-12-13T03:58:37.306Z,2.30
2018-12-13T04:01:11.710Z,2.20
2018-12-13T04:03:46.091Z,2.30
2018-12-13T04:06:20.432Z,2.30
2018-12-13T04:08:54.868Z,2.30
2018-12-13T04:11:29.225Z,2.40
2018-12-13T04:14:03.717Z,2.40
2018-12-13T04:16:38.004Z,2.40
2018-12-13T04:19:12.280Z,2.40
2018-12-13T04:21:46.688Z,2.40
2018-12-13T04:24:20.973Z,2.40
2018-12-13T04:26:55.397Z,2.50
2018-12-13T04:29:29.795Z,2.50
2018-12-13T04:32:04.620Z,2.50
2018-12-13T04:34:38.969Z,2.50
2018-12-13T04:37:13.322Z,2.60
2018-12-13T04:39:47.641Z,2.60
2018-12-13T04:42:21.842Z,2.60
2018-12-13T04:44:56.112Z,2.60
2018-12-13T04:47:30.552Z,2.60
2018-12-13T04:50:05.737Z,2.60
2018-12-13T04:52:40.159Z,2.50
2018-12-13T04:55:14.460Z,2.50
2018-12-13T04:57:48.746Z,2.40
2018-12-13T05:00:23.052Z,2.40
2018-12-13T05:02:57.385Z,2.40
2018-12-13T05:05:31.612Z,2.40
2018-12-13T05:08:05.888Z,2.40
2018-12-13T05:10:52.178Z,2.30
2018-12-13T05:13:26.613Z,2.30
2018-12-13T05:16:00.953Z,2.30
2018-12-13T05:18:35.334Z,2.40
2018-12-13T05:21:09.563Z,2.40
2018-12-13T05:23:43.762Z,2.40
2018-12-13T05:26:17.961Z,2.50
2018-12-13T05:28:52.266Z,2.50
2018-12-13T05:31:26.592Z,2.50
2018-12-13T05:34:00.869Z,2.50
2018-12-13T05:36:35.110Z,2.50
2018-12-13T05:39:09.489Z,2.60
2018-12-13T05:41:43.945Z,2.50
2018-12-13T05:44:21.453Z,2.60
2018-12-13T05:46:55.744Z,2.60
2018-12-13T05:49:30.160Z,2.60
2018-12-13T05:52:04.528Z,2.60
2018-12-13T05:54:38.796Z,2.70
2018-12-13T05:57:13.257Z,2.70
2018-12-13T05:59:47.713Z,2.70
2018-12-13T06:02:22.160Z,2.70
2018-12-13T06:04:56.389Z,2.80
2018-12-13T06:07:30.720Z,2.80
2018-12-13T06:10:05.260Z,2.80
2018-12-13T06:12:39.433Z,2.80
2018-12-13T06:15:13.880Z,2.80
2018-12-13T06:17:48.316Z,2.80
2018-12-13T06:20:22.732Z,2.80
2018-12-13T06:22:56.912Z,2.80
2018-12-13T06:25:31.290Z,2.80
2018-12-13T06:28:05.821Z,2.80
2018-12-13T06:30:40.131Z,2.80
2018-12-13T06:33:14.384Z,2.80
2018-12-13T06:35:48.616Z,2.90
2018-12-13T06:38:23.024Z,2.90
2018-12-13T06:40:57.431Z,2.90
2018-12-13T06:43:31.788Z,2.90
2018-12-13T06:46:06.197Z,2.90
2018-12-13T06:48:40.812Z,2.90
2018-12-13T06:51:15.209Z,2.90
2018-12-13T06:53:49.593Z,2.90
2018-12-13T06:56:23.812Z,2.90
2018-12-13T06:58:58.245Z,2.90
2018-12-13T07:01:32.553Z,2.90
2018-12-13T07:04:06.744Z,2.90
2018-12-13T07:06:41.036Z,3.00
2018-12-13T07:09:15.424Z,3.00
2018-12-13T07:11:49.669Z,3.00
2018-12-13T07:14:23.941Z,3.00
2018-12-13T07:16:58.304Z,3.00
2018-12-13T07:19:32.724Z,3.00
2018-12-13T07:22:07.133Z,3.10
2018-12-13T07:24:41.526Z,3.00
2018-12-13T07:27:16.005Z,3.00
2018-12-13T07:29:50.146Z,3.00
2018-12-13T07:32:24.669Z,3.10
2018-12-13T07:35:01.483Z,3.00
2018-12-13T07:37:35.434Z,3.10
2018-12-13T07:40:09.818Z,3.10
2018-12-13T07:42:44.120Z,3.10
2018-12-13T07:45:18.421Z,3.10
2018-12-13T07:47:52.724Z,3.20
2018-12-13T07:50:27.299Z,3.20
2018-12-13T07:53:01.836Z,3.20
2018-12-13T07:55:36.185Z,3.20
2018-12-13T07:58:10.413Z,3.20
2018-12-13T08:00:44.765Z,3.30
2018-12-13T08:03:19.252Z,3.20
2018-12-13T08:05:53.465Z,3.20
2018-12-13T08:08:27.652Z,3.20
2018-12-13T08:11:01.924Z,3.20
2018-12-13T08:13:36.225Z,3.20
2018-12-13T08:16:11.029Z,3.20
2018-12-13T08:18:45.343Z,3.20
2018-12-13T08:21:19.581Z,3.20
2018-12-13T08:23:53.945Z,3.30
2018-12-13T08:26:28.430Z,3.30
2018-12-13T08:29:02.901Z,3.30
2018-12-13T08:31:37.185Z,3.30
2018-12-13T08:34:11.562Z,3.30
2018-12-13T08:36:45.917Z,3.30
2018-12-13T08:39:20.251Z,3.30
2018-12-13T08:41:54.602Z,3.30
2018-12-13T08:44:28.900Z,3.30
2018-12-13T08:47:03.201Z,3.30
2018-12-13T08:49:37.558Z,3.30
2018-12-13T08:52:11.887Z,3.30
2018-12-13T08:54:46.153Z,3.40
2018-12-13T08:57:20.487Z,3.30
2018-12-13T08:59:54.927Z,3.40
2018-12-13T09:02:29.253Z,3.40
2018-12-13T09:05:04.738Z,3.50
2018-12-13T09:07:38.957Z,3.40
2018-12-13T09:10:13.469Z,3.50
2018-12-13T09:12:47.764Z,3.50
2018-12-13T09:15:22.084Z,3.50
2018-12-13T09:17:56.311Z,3.50
2018-12-13T09:20:30.722Z,3.50
2018-12-13T09:23:05.087Z,3.50
2018-12-13T09:25:39.344Z,3.50
2018-12-13T09:28:13.625Z,3.50
2018-12-13T09:30:47.972Z,3.50
2018-12-13T09:33:22.352Z,3.50
2018-12-13T09:35:56.688Z,3.60
2018-12-13T09:38:30.869Z,3.60
2018-12-13T09:41:05.311Z,3.60
2018-12-13T09:43:39.641Z,3.60
2018-12-13T09:46:13.949Z,3.70
2018-12-13T09:48:49.411Z,3.70
2018-12-13T09:51:23.871Z,3.70
2018-12-13T09:53:58.156Z,3.80
2018-12-13T09:56:32.621Z,3.90
2018-12-13T09:59:06.959Z,3.90
2018-12-13T10:01:41.348Z,4.00
2018-12-13T10:04:15.754Z,4.00
2018-12-13T10:06:50.056Z,4.00
2018-12-13T10:09:24.456Z,4.00
2018-12-13T10:11:58.670Z,3.90
2018-12-13T10:14:33.284Z,4.00
2018-12-13T10:17:07.571Z,4.00
2018-12-13T10:19:42.025Z,4.00
2018-12-13T10:22:16.375Z,4.00
2018-12-13T10:24:50.809Z,4.00
2018-12-13T10:27:25.152Z,4.00
2018-12-13T10:29:59.591Z,4.00
2018-12-13T10:32:34.017Z,4.00
2018-12-13T10:35:11.352Z,3.90
2018-12-13T10:37:44.599Z,4.00
2018-12-13T10:40:18.950Z,4.10
2018-12-13T10:42:53.232Z,4.10
2018-12-13T10:45:27.461Z,4.10
2018-12-13T10:48:01.853Z,4.00
2018-12-13T10:50:36.248Z,4.10
2018-12-13T10:53:10.597Z,4.10
2018-12-13T10:55:44.904Z,4.10
2018-12-13T10:58:19.273Z,4.10
2018-12-13T11:00:58.996Z,4.10
2018-12-13T11:03:36.099Z,4.10
2018-12-13T11:06:10.386Z,4.10
2018-12-13T11:08:44.753Z,4.10
2018-12-13T11:11:18.957Z,4.10
2018-12-13T11:13:53.280Z,4.20
2018-12-13T11:16:27.789Z,4.20
2018-12-13T11:19:02.189Z,4.20
2018-12-13T11:21:36.425Z,4.20
2018-12-13T11:24:10.749Z,4.20
2018-12-13T11:26:45.060Z,4.30
2018-12-13T11:29:29.525Z,4.20
2018-12-13T11:32:03.983Z,4.20
2018-12-13T11:34:38.352Z,4.30
2018-12-13T11:37:12.653Z,4.30
2018-12-13T11:39:46.840Z,4.30
2018-12-13T11:42:21.035Z,4.20
2018-12-13T11:44:55.437Z,4.20
2018-12-13T11:47:29.997Z,4.30
2018-12-13T11:50:05.344Z,4.20
2018-12-13T11:52:39.638Z,4.30
2018-12-13T11:55:24.101Z,4.30
2018-12-13T11:57:58.417Z,4.40
2018-12-13T12:00:32.736Z,4.40
2018-12-13T12:03:07.153Z,4.30
2018-12-13T12:05:41.661Z,4.30
2018-12-13T12:08:16.053Z,4.30
2018-12-13T12:10:50.961Z,4.30
2018-12-13T12:13:25.453Z,4.40
2018-12-13T12:15:59.857Z,4.40
2018-12-13T12:18:34.079Z,4.40
2018-12-13T12:21:08.564Z,4.40
2018-12-13T12:23:42.928Z,4.30
2018-12-13T12:26:17.338Z,4.30
2018-12-13T12:28:51.583Z,4.30
2018-12-13T12:31:25.850Z,4.30
2018-12-13T12:34:00.016Z,4.40
2018-12-13T12:36:34.489Z,4.50
2018-12-13T12:39:08.878Z,4.40
2018-12-13T12:41:43.356Z,4.30
2018-12-13T12:44:17.836Z,4.30
2018-12-13T12:46:52.257Z,4.30
2018-12-13T12:49:26.609Z,4.30
2018-12-13T12:52:00.888Z,4.30
2018-12-13T12:54:35.288Z,4.20
2018-12-13T12:57:09.548Z,4.30
2018-12-13T12:59:43.905Z,4.30
2018-12-13T13:02:18.306Z,4.20
2018-12-13T13:04:52.556Z,4.10
2018-12-13T13:07:26.985Z,4.10
2018-12-13T13:10:01.264Z,4.10
2018-12-13T13:12:35.530Z,4.10
2018-12-13T13:15:09.612Z,4.10
2018-12-13T13:17:44.065Z,4.20
2018-12-13T13:20:18.432Z,4.20
2018-12-13T13:22:52.729Z,4.20
2018-12-13T13:25:27.052Z,4.20
2018-12-13T13:28:01.362Z,4.20
2018-12-13T13:30:35.816Z,4.10
2018-12-13T13:33:10.116Z,4.20
2018-12-13T13:35:44.710Z,4.10
2018-12-13T13:38:19.078Z,4.20
2018-12-13T13:40:53.399Z,4.20
2018-12-13T13:43:27.679Z,4.20
2018-12-13T13:46:02.156Z,4.20
2018-12-13T13:48:36.538Z,4.20
2018-12-13T13:51:10.988Z,4.20
2018-12-13T13:53:45.294Z,4.20
2018-12-13T13:56:19.708Z,4.20
2018-12-13T13:58:54.028Z,4.20
2018-12-13T14:01:28.257Z,4.10
2018-12-13T14:04:02.610Z,4.10
2018-12-13T14:06:37.043Z,4.10
2018-12-13T14:09:11.289Z,4.10
2018-12-13T14:11:45.724Z,4.10
2018-12-13T14:14:19.940Z,4.10
2018-12-13T14:16:54.272Z,4.10
2018-12-13T14:19:28.490Z,4.10
2018-12-13T14:22:04.333Z,4.10
2018-12-13T14:24:38.921Z,4.10
2018-12-13T14:27:13.886Z,4.00
2018-12-13T14:29:50.381Z,4.00
2018-12-13T14:32:24.963Z,4.00
2018-12-13T14:34:59.382Z,4.00
2018-12-13T14:37:33.819Z,4.00
2018-12-13T14:40:08.156Z,4.00
2018-12-13T14:42:42.412Z,3.90
2018-12-13T14:45:16.776Z,3.90
2018-12-13T14:47:51.056Z,4.00
2018-12-13T14:50:25.344Z,3.90
2018-12-13T14:53:00.799Z,3.90
2018-12-13T14:55:35.230Z,3.90
2018-12-13T14:58:09.657Z,3.90
2018-12-13T15:00:43.865Z,3.80
2018-12-13T15:03:18.293Z,3.90
2018-12-13T15:05:52.493Z,3.90
2018-12-13T15:08:26.708Z,3.90
2018-12-13T15:11:01.125Z,3.90
2018-12-13T15:13:35.422Z,3.80
2018-12-13T15:16:09.732Z,3.90
2018-12-13T15:18:44.154Z,3.80
2018-12-13T15:21:18.388Z,3.90
2018-12-13T15:23:52.585Z,3.80
2018-12-13T15:26:27.092Z,3.80
2018-12-13T15:29:01.572Z,3.80
2018-12-13T15:31:35.827Z,3.80
2018-12-13T15:34:10.064Z,3.80
2018-12-13T15:36:44.333Z,3.80
2018-12-13T15:39:21.632Z,3.80
2018-12-13T15:41:55.846Z,3.80
2018-12-13T15:44:30.204Z,3.80
2018-12-13T15:47:04.957Z,3.80
2018-12-13T15:49:39.392Z,3.80
2018-12-13T15:52:13.718Z,3.80
2018-12-13T15:54:47.860Z,3.80
2018-12-13T15:57:22.134Z,3.80
2018-12-13T15:59:56.586Z,3.80
2018-12-13T16:02:37.252Z,3.80
2018-12-13T16:05:11.537Z,3.80
2018-12-13T16:07:45.875Z,3.80
2018-12-13T16:10:20.120Z,3.80
2018-12-13T16:12:54.541Z,3.80
2018-12-13T16:15:28.886Z,3.80
2018-12-13T16:18:03.336Z,3.80
2018-12-13T16:20:37.648Z,3.70
2018-12-13T16:23:13.164Z,3.80
2018-12-13T16:25:47.777Z,3.80
2018-12-13T16:28:22.124Z,3.80
2018-12-13T16:30:56.452Z,3.70
2018-12-13T16:33:30.865Z,3.70
2018-12-13T16:36:05.199Z,3.70
2018-12-13T16:38:39.560Z,3.70
2018-12-13T16:41:13.919Z,3.70
2018-12-13T16:43:48.323Z,3.60
2018-12-13T16:46:22.742Z,3.70
2018-12-13T16:48:56.990Z,3.60
2018-12-13T16:51:31.296Z,3.60
2018-12-13T16:54:05.669Z,3.60
2018-12-13T16:56:39.920Z,3.60
2018-12-13T16:59:14.148Z,3.50
2018-12-13T17:01:48.453Z,3.50
2018-12-13T17:04:22.776Z,3.50
2018-12-13T17:06:56.976Z,3.60
2018-12-13T17:09:31.433Z,3.60
2018-12-13T17:12:05.824Z,3.60
2018-12-13T17:14:40.102Z,3.60
2018-12-13T17:17:14.560Z,3.60
2018-12-13T17:19:48.966Z,3.60
2018-12-13T17:22:23.316Z,3.50
2018-12-13T17:24:57.744Z,3.40
2018-12-13T17:27:32.125Z,3.40
2018-12-13T17:30:08.229Z,3.40
2018-12-13T17:32:42.535Z,3.40
2018-12-13T17:35:16.977Z,3.40
2018-12-13T17:37:51.537Z,3.40
2018-12-13T17:40:25.953Z,3.40
2018-12-13T17:43:00.326Z,3.40
2018-12-13T17:45:34.805Z,3.40
2018-12-13T17:48:09.279Z,3.40
2018-12-13T17:50:43.545Z,3.40
2018-12-13T17:53:18.384Z,3.40
2018-12-13T17:55:52.673Z,3.40
2018-12-13T17:58:27.184Z,3.40
2018-12-13T18:01:01.591Z,3.40
2018-12-13T18:03:36.106Z,3.30
2018-12-13T18:06:10.271Z,3.30
2018-12-13T18:08:44.532Z,3.30
2018-12-13T18:11:18.877Z,3.30
2018-12-13T18:13:53.273Z,3.40
2018-12-13T18:16:27.666Z,3.40
2018-12-13T18:19:02.122Z,3.40
2018-12-13T18:21:36.351Z,3.40
2018-12-13T18:24:10.730Z,3.40
2018-12-13T18:26:45.108Z,3.30
2018-12-13T18:29:19.453Z,3.40
2018-12-13T18:31:53.892Z,3.40
2018-12-13T18:34:28.216Z,3.40
2018-12-13T18:37:02.720Z,3.40
2018-12-13T18:39:37.088Z,3.40
2018-12-13T18:42:11.604Z,3.40
2018-12-13T18:44:46.038Z,3.40
2018-12-13T18:47:20.213Z,3.40
2018-12-13T18:49:54.398Z,3.40
2018-12-13T18:52:28.921Z,3.40
2018-12-13T18:55:03.386Z,3.40
2018-12-13T18:57:37.889Z,3.40
2018-12-13T19:00:12.202Z,3.40
2018-12-13T19:02:46.515Z,3.30
2018-12-13T19:05:20.660Z,3.40
2018-12-13T19:07:54.945Z,3.40
2018-12-13T19:10:29.344Z,3.40
2018-12-13T19:13:03.821Z,3.40
2018-12-13T19:15:38.209Z,3.40
2018-12-13T19:18:12.421Z,3.40
2018-12-13T19:20:46.713Z,3.40
2018-12-13T19:23:20.925Z,3.40
2018-12-13T19:25:56.110Z,3.40
2018-12-13T19:28:30.612Z,3.40
2018-12-13T19:31:04.833Z,3.40
2018-12-13T19:33:39.158Z,3.40
2018-12-13T19:36:13.440Z,3.50
2018-12-13T19:38:47.697Z,3.50
2018-12-13T19:41:22.026Z,3.50
2018-12-13T19:43:56.425Z,3.50
2018-12-13T19:46:30.790Z,3.50
2018-12-13T19:49:05.102Z,3.50
2018-12-13T19:51:39.232Z,3.50
2018-12-13T19:54:13.519Z,3.50
2018-12-13T19:56:47.928Z,3.50
2018-12-13T19:59:22.104Z,3.50
2018-12-13T20:01:57.999Z,3.50
2018-12-13T20:04:32.280Z,3.50
2018-12-13T20:07:06.757Z,3.60
2018-12-13T20:09:41.167Z,3.50
2018-12-13T20:12:15.343Z,3.50
2018-12-13T20:14:49.532Z,3.50
2018-12-13T20:17:23.844Z,3.50
2018-12-13T20:19:58.152Z,3.50
2018-12-13T20:22:32.424Z,3.50
2018-12-13T20:25:08.173Z,3.50
2018-12-13T20:27:42.505Z,3.40
2018-12-13T20:30:16.920Z,3.40
2018-12-13T20:32:51.198Z,3.50
2018-12-13T20:35:26.048Z,3.50
2018-12-13T20:38:00.361Z,3.40
2018-12-13T20:40:34.657Z,3.40
2018-12-13T20:43:08.837Z,3.40
2018-12-13T20:45:43.257Z,3.40
2018-12-13T20:48:17.672Z,3.40
2018-12-13T20:50:51.968Z,3.40
2018-12-13T20:53:26.350Z,3.40
2018-12-13T20:56:00.519Z,3.40
2018-12-13T20:58:34.713Z,3.40
2018-12-13T21:01:09.056Z,3.40
2018-12-13T21:03:43.404Z,3.40
2018-12-13T21:06:17.697Z,3.40
2018-12-13T21:08:52.068Z,3.50
2018-12-13T21:11:26.520Z,3.40
2018-12-13T21:14:00.717Z,3.40
2018-12-13T21:16:34.914Z,3.50
2018-12-13T21:19:09.283Z,3.50
2018-12-13T21:21:43.641Z,3.50
2018-12-13T21:24:18.055Z,3.50
2018-12-13T21:26:52.464Z,3.50
2018-12-13T21:29:26.885Z,3.50
2018-12-13T21:32:01.356Z,3.50
2018-12-13T21:34:35.700Z,3.50
2018-12-13T21:37:10.099Z,3.50
2018-12-13T21:39:45.036Z,3.50
2018-12-13T21:42:19.384Z,3.50
2018-12-13T21:44:53.728Z,3.60
2018-12-13T21:47:28.271Z,3.50
2018-12-13T21:50:02.592Z,3.50
2018-12-13T21:52:37.007Z,3.50
2018-12-13T21:55:11.336Z,3.50
2018-12-13T21:57:45.844Z,3.50
2018-12-13T22:00:20.429Z,3.50
2018-12-13T22:02:54.713Z,3.50
2018-12-13T22:05:29.229Z,3.50
2018-12-13T22:08:03.521Z,3.50
2018-12-13T22:10:37.822Z,3.50
2018-12-13T22:13:12.085Z,3.50
2018-12-13T22:15:46.280Z,3.50
2018-12-13T22:18:20.757Z,3.50
2018-12-13T22:20:55.065Z,3.50
2018-12-13T22:23:29.407Z,3.50
2018-12-13T22:26:03.956Z,3.50
2018-12-13T22:28:38.221Z,3.50
2018-12-13T22:31:12.533Z,3.50
2018-12-13T22:33:46.967Z,3.50
2018-12-13T22:36:21.301Z,3.50
2018-12-13T22:38:55.528Z,3.50
2018-12-13T22:41:29.836Z,3.50
2018-12-13T22:44:04.297Z,3.50
2018-12-13T22:46:38.662Z,3.60
2018-12-13T22:49:13.144Z,3.50
2018-12-13T22:51:47.384Z,3.50
2018-12-13T22:54:21.600Z,3.50
2018-12-13T22:56:56.094Z,3.50
2018-12-13T22:59:30.390Z,3.60
2018-12-13T23:02:04.872Z,3.60
2018-12-13T23:04:39.277Z,3.60
2018-12-13T23:07:13.599Z,3.50
2018-12-13T23:09:47.928Z,3.60
2018-12-13T23:12:22.144Z,3.60
2018-12-13T23:14:56.497Z,3.60
2018-12-13T23:17:30.990Z,3.60
2018-12-13T23:20:05.510Z,3.60
2018-12-13T23:22:39.972Z,3.60
2018-12-13T23:25:14.500Z,3.60
2018-12-13T23:27:48.832Z,3.60
2018-12-13T23:30:23.329Z,3.60
2018-12-13T23:32:57.620Z,3.50
2018-12-13T23:35:31.828Z,3.60
2018-12-13T23:38:06.239Z,3.50
2018-12-13T23:40:40.433Z,3.50
2018-12-13T23:43:14.684Z,3.50
2018-12-13T23:45:49.065Z,3.50
2018-12-13T23:48:23.246Z,3.40
2018-12-13T23:50:57.577Z,3.40
2018-12-13T23:53:32.252Z,3.40
2018-12-13T23:56:06.843Z,3.40
2018-12-13T23:58:41.171Z,3.40
